createdAt,value
2018-11-20T00:01:37.187Z,2.10
2018-11-20T00:04:44.340Z,2.10
2018-11-20T00:07:51.508Z,2.10
2018-11-20T00:10:52.219Z,2.00
2018-11-20T00:13:59.379Z,2.00
2018-11-20T00:17:06.554Z,1.90
2018-11-20T00:20:13.760Z,1.80
2018-11-20T00:23:20.916Z,1.80
2018-11-20T00:26:19.927Z,1.70
2018-11-20T00:29:27.075Z,1.80
2018-11-20T00:32:34.240Z,1.70
2018-11-20T00:35:41.397Z,1.70
2018-11-20T00:38:48.552Z,1.80
2018-11-20T00:41:55.940Z,1.70
2018-11-20T00:45:03.105Z,1.70
2018-11-20T00:48:10.248Z,1.60
2018-11-20T00:51:17.680Z,1.70
2018-11-20T00:54:24.940Z,1.60
2018-11-20T00:57:32.088Z,1.60
2018-11-20T01:00:39.249Z,1.70
2018-11-20T01:03:38.817Z,1.70
2018-11-20T01:06:45.732Z,1.70
2018-11-20T01:09:52.915Z,1.70
2018-11-20T01:13:00.070Z,1.60
2018-11-20T01:16:07.221Z,1.60
2018-11-20T01:19:14.428Z,1.70
2018-11-20T01:22:21.572Z,1.70
2018-11-20T01:25:28.736Z,1.60
2018-11-20T01:28:35.888Z,1.60
2018-11-20T01:31:43.060Z,1.60
2018-11-20T01:34:50.243Z,1.60
2018-11-20T01:37:56.125Z,1.60
2018-11-20T01:41:03.278Z,1.50
2018-11-20T01:44:05.690Z,1.50
2018-11-20T01:47:12.841Z,1.50
2018-11-20T01:50:20.004Z,1.50
2018-11-20T01:53:27.168Z,1.40
2018-11-20T01:56:34.337Z,1.40
2018-11-20T01:59:29.407Z,1.50
2018-11-20T02:05:43.419Z,1.50
2018-11-20T02:08:50.579Z,1.40
2018-11-20T02:11:57.765Z,1.40
2018-11-20T02:15:04.933Z,1.40
2018-11-20T02:18:14.602Z,1.40
2018-11-20T02:21:21.770Z,1.40
2018-11-20T02:24:28.955Z,1.40
2018-11-20T02:27:36.140Z,1.50
2018-11-20T02:30:43.338Z,1.50
2018-11-20T02:33:50.496Z,1.50
2018-11-20T02:36:57.675Z,1.40
2018-11-20T02:39:54.775Z,1.50
2018-11-20T02:42:49.690Z,1.50
2018-11-20T02:45:56.839Z,1.50
2018-11-20T02:49:04.696Z,1.50
2018-11-20T02:52:11.908Z,1.50
2018-11-20T02:55:19.120Z,1.40
2018-11-20T02:58:26.273Z,1.50
2018-11-20T03:01:33.442Z,1.40
2018-11-20T03:04:40.615Z,1.40
2018-11-20T03:07:37.563Z,1.40
2018-11-20T03:10:44.713Z,1.40
2018-11-20T03:13:51.887Z,1.40
2018-11-20T03:16:59.032Z,1.40
2018-11-20T03:20:06.200Z,1.40
2018-11-20T03:23:13.375Z,1.30
2018-11-20T03:26:22.248Z,1.30
2018-11-20T03:29:48.430Z,1.30
2018-11-20T03:32:44.875Z,1.40
2018-11-20T03:35:52.037Z,1.40
2018-11-20T03:38:59.257Z,1.40
2018-11-20T03:42:06.433Z,1.40
2018-11-20T03:45:13.581Z,1.40
2018-11-20T03:48:20.778Z,1.40
2018-11-20T03:51:27.924Z,1.40
2018-11-20T03:54:35.088Z,1.40
2018-11-20T03:57:42.235Z,1.50
2018-11-20T04:00:49.401Z,1.50
2018-11-20T04:03:56.836Z,1.40
2018-11-20T04:07:04.017Z,1.40
2018-11-20T04:10:11.189Z,1.40
2018-11-20T04:13:18.360Z,1.50
2018-11-20T04:16:25.507Z,1.50
2018-11-20T04:19:23.805Z,1.60
2018-11-20T04:22:30.972Z,1.60
2018-11-20T04:25:38.147Z,1.60
2018-11-20T04:28:45.301Z,1.60
2018-11-20T04:32:11.524Z,1.50
2018-11-20T04:35:19.372Z,1.50
2018-11-20T04:38:26.521Z,1.50
2018-11-20T04:41:33.684Z,1.50
2018-11-20T04:44:40.849Z,1.50
2018-11-20T04:47:47.995Z,1.50
2018-11-20T04:50:55.179Z,1.50
2018-11-20T04:54:02.332Z,1.50
2018-11-20T04:57:09.499Z,1.50
2018-11-20T05:00:16.671Z,1.50
2018-11-20T05:03:24.101Z,1.50
2018-11-20T05:06:31.370Z,1.50
2018-11-20T05:09:38.740Z,1.50
2018-11-20T05:12:45.892Z,1.50
2018-11-20T05:15:45.590Z,1.50
2018-11-20T05:18:52.779Z,1.50
2018-11-20T05:21:55.760Z,1.60
2018-11-20T05:25:02.941Z,1.50
2018-11-20T05:28:10.187Z,1.50
2018-11-20T05:31:10.048Z,1.50
2018-11-20T05:34:17.158Z,1.50
2018-11-20T05:37:24.526Z,1.50
2018-11-20T05:40:20.344Z,1.60
2018-11-20T05:43:27.495Z,1.60
2018-11-20T05:46:34.651Z,1.60
2018-11-20T05:49:41.819Z,1.60
2018-11-20T05:52:48.977Z,1.60
2018-11-20T05:55:47.895Z,1.60
2018-11-20T05:58:55.040Z,1.60
2018-11-20T06:02:02.247Z,1.60
2018-11-20T06:05:09.399Z,1.60
2018-11-20T06:08:16.942Z,1.50
2018-11-20T06:11:24.373Z,1.50
2018-11-20T06:14:31.543Z,1.60
2018-11-20T06:17:38.697Z,1.60
2018-11-20T06:20:45.859Z,1.60
2018-11-20T06:23:41.135Z,1.60
2018-11-20T06:26:48.285Z,1.60
2018-11-20T06:29:55.475Z,1.60
2018-11-20T06:33:02.628Z,1.60
2018-11-20T06:36:02.123Z,1.50
2018-11-20T06:39:09.280Z,1.60
2018-11-20T06:42:16.448Z,1.60
2018-11-20T06:45:23.598Z,1.60
2018-11-20T06:48:30.784Z,1.60
2018-11-20T06:51:37.936Z,1.60
2018-11-20T06:54:45.119Z,1.50
2018-11-20T06:57:42.676Z,1.50
2018-11-20T07:00:49.850Z,1.60
2018-11-20T07:03:56.997Z,1.60
2018-11-20T07:07:04.264Z,1.50
2018-11-20T07:10:11.320Z,1.60
2018-11-20T07:13:31.752Z,1.60
2018-11-20T07:16:57.920Z,1.60
2018-11-20T07:20:05.098Z,1.60
2018-11-20T07:23:12.252Z,1.60
2018-11-20T07:26:19.438Z,1.60
2018-11-20T07:29:22.503Z,1.60
2018-11-20T07:32:29.652Z,1.60
2018-11-20T07:35:36.801Z,1.70
2018-11-20T07:38:43.970Z,1.70
2018-11-20T07:41:51.140Z,1.60
2018-11-20T07:44:58.320Z,1.70
2018-11-20T07:47:59.064Z,1.70
2018-11-20T07:51:06.261Z,1.70
2018-11-20T07:54:03.100Z,1.70
2018-11-20T07:57:10.278Z,1.80
2018-11-20T08:00:17.428Z,1.70
2018-11-20T08:03:24.596Z,1.70
2018-11-20T08:06:32.106Z,1.80
2018-11-20T08:09:39.315Z,1.80
2018-11-20T08:12:46.449Z,1.80
2018-11-20T08:15:53.622Z,1.80
2018-11-20T08:19:00.781Z,1.80
2018-11-20T08:22:07.977Z,1.80
2018-11-20T08:25:15.194Z,1.90
2018-11-20T08:28:22.320Z,1.90
2018-11-20T08:31:29.485Z,1.90
2018-11-20T08:34:36.655Z,1.90
2018-11-20T08:37:32.972Z,1.90
2018-11-20T08:40:40.199Z,1.90
2018-11-20T08:43:47.344Z,2.00
2018-11-20T08:49:57.723Z,2.00
2018-11-20T08:53:04.872Z,2.00
2018-11-20T08:56:12.076Z,2.00
2018-11-20T08:59:19.504Z,2.00
2018-11-20T09:02:26.768Z,2.00
2018-11-20T09:05:33.845Z,2.00
2018-11-20T09:08:41.049Z,2.10
2018-11-20T09:11:48.167Z,2.10
2018-11-20T09:14:55.337Z,2.10
2018-11-20T09:18:02.582Z,2.10
2018-11-20T09:21:09.700Z,2.10
2018-11-20T09:24:08.532Z,2.10
2018-11-20T09:27:15.708Z,2.20
2018-11-20T09:30:22.858Z,2.20
2018-11-20T09:33:30.020Z,2.30
2018-11-20T09:36:37.168Z,2.30
2018-11-20T09:39:45.145Z,2.30
2018-11-20T09:42:52.531Z,2.30
2018-11-20T09:46:18.722Z,2.40
2018-11-20T09:49:25.932Z,2.30
2018-11-20T09:52:33.109Z,2.30
2018-11-20T09:55:32.800Z,2.30
2018-11-20T09:58:32.889Z,2.30
2018-11-20T10:01:38.464Z,2.40
2018-11-20T10:04:38.642Z,2.40
2018-11-20T10:07:41.036Z,2.40
2018-11-20T10:10:34.629Z,2.40
2018-11-20T10:16:27.138Z,2.50
2018-11-20T10:19:26.555Z,2.50
2018-11-20T10:22:26.341Z,2.60
2018-11-20T10:25:19.038Z,2.70
2018-11-20T10:28:19.228Z,2.80
2018-11-20T10:31:19.065Z,2.70
2018-11-20T10:34:19.018Z,2.80
2018-11-20T10:37:06.220Z,2.80
2018-11-20T10:40:06.383Z,2.80
2018-11-20T10:43:06.540Z,2.90
2018-11-20T10:46:05.872Z,2.90
2018-11-20T10:49:05.616Z,3.00
2018-11-20T10:52:05.853Z,3.00
2018-11-20T10:55:06.001Z,3.10
2018-11-20T10:58:06.057Z,3.30
2018-11-20T11:01:06.060Z,3.40
2018-11-20T11:03:48.224Z,3.50
2018-11-20T11:06:48.511Z,3.60
2018-11-20T11:09:48.008Z,3.60
2018-11-20T11:12:48.259Z,3.50
2018-11-20T11:15:47.943Z,3.40
2018-11-20T11:18:38.569Z,3.50
2018-11-20T11:21:38.844Z,3.50
2018-11-20T11:24:32.032Z,3.60
2018-11-20T11:27:28.493Z,3.50
2018-11-20T11:30:34.594Z,3.40
2018-11-20T11:33:33.935Z,3.40
2018-11-20T11:36:33.238Z,3.50
2018-11-20T11:39:28.777Z,3.40
2018-11-20T11:42:28.120Z,3.50
2018-11-20T11:45:30.606Z,3.50
2018-11-20T11:48:24.005Z,3.50
2018-11-20T11:51:25.476Z,3.50
2018-11-20T11:54:14.638Z,3.50
2018-11-20T11:57:13.995Z,3.60
2018-11-20T12:00:14.011Z,3.50
2018-11-20T12:03:19.903Z,3.40
2018-11-20T12:06:13.112Z,3.40
2018-11-20T12:09:12.616Z,3.30
2018-11-20T12:12:13.099Z,3.30
2018-11-20T12:15:20.286Z,3.20
2018-11-20T12:18:27.434Z,3.20
2018-11-20T12:21:34.614Z,3.30
2018-11-20T12:24:41.851Z,3.40
2018-11-20T12:27:41.355Z,3.30
2018-11-20T12:30:47.658Z,3.20
2018-11-20T12:33:54.857Z,3.20
2018-11-20T12:40:03.662Z,3.20
2018-11-20T12:43:10.829Z,3.30
2018-11-20T12:46:17.979Z,3.40
2018-11-20T12:49:25.152Z,3.30
2018-11-20T12:52:32.328Z,3.30
2018-11-20T12:55:31.329Z,3.30
2018-11-20T12:58:38.471Z,3.30
2018-11-20T13:01:45.656Z,3.30
2018-11-20T13:04:52.816Z,3.20
2018-11-20T13:08:00.652Z,3.20
2018-11-20T13:11:07.135Z,3.30
2018-11-20T13:14:14.310Z,3.20
2018-11-20T13:17:21.458Z,3.20
2018-11-20T13:20:19.134Z,3.20
2018-11-20T13:23:27.473Z,3.10
2018-11-20T13:26:33.613Z,3.10
2018-11-20T13:29:40.764Z,3.20
2018-11-20T13:32:47.955Z,3.20
2018-11-20T13:35:55.086Z,3.20
2018-11-20T13:39:02.969Z,3.20
2018-11-20T13:42:11.878Z,3.20
2018-11-20T13:45:18.867Z,3.20
2018-11-20T13:48:16.189Z,3.10
2018-11-20T13:51:23.399Z,3.10
2018-11-20T13:54:31.979Z,3.10
2018-11-20T13:57:24.989Z,3.10
2018-11-20T14:00:23.387Z,3.00
2018-11-20T14:03:30.554Z,3.00
2018-11-20T14:06:28.618Z,3.00
2018-11-20T14:09:35.787Z,2.90
2018-11-20T14:12:43.051Z,2.90
2018-11-20T14:15:50.243Z,2.90
2018-11-20T14:18:57.384Z,2.70
2018-11-20T14:21:53.595Z,2.70
2018-11-20T14:25:01.413Z,2.60
2018-11-20T14:28:08.575Z,2.60
2018-11-20T14:31:16.017Z,2.60
2018-11-20T14:34:24.248Z,2.50
2018-11-20T14:37:30.467Z,2.60
2018-11-20T14:40:27.498Z,2.60
2018-11-20T14:43:34.648Z,2.60
2018-11-20T14:46:41.824Z,2.60
2018-11-20T14:49:46.512Z,2.70
2018-11-20T14:52:53.663Z,2.60
2018-11-20T14:56:00.857Z,2.60
2018-11-20T14:59:08.010Z,2.60
2018-11-20T15:02:15.172Z,2.70
2018-11-20T15:05:22.318Z,2.70
2018-11-20T15:08:20.225Z,2.60
2018-11-20T15:11:27.373Z,2.50
2018-11-20T15:14:34.833Z,2.50
2018-11-20T15:17:41.979Z,2.40
2018-11-20T15:20:49.149Z,2.30
2018-11-20T15:23:56.285Z,2.30
2018-11-20T15:27:03.447Z,2.20
2018-11-20T15:30:10.594Z,2.20
2018-11-20T15:33:17.813Z,2.30
2018-11-20T15:36:24.945Z,2.30
2018-11-20T15:39:18.076Z,2.20
2018-11-20T15:42:25.222Z,2.20
2018-11-20T15:45:26.790Z,2.20
2018-11-20T15:48:33.957Z,2.20
2018-11-20T15:51:31.136Z,2.20
2018-11-20T15:54:38.324Z,2.10
2018-11-20T15:57:45.477Z,2.10
2018-11-20T16:00:52.644Z,2.10
2018-11-20T16:03:59.796Z,2.10
2018-11-20T16:07:06.954Z,2.00
2018-11-20T16:10:14.104Z,2.00
2018-11-20T16:13:21.312Z,2.00
2018-11-20T16:16:15.739Z,1.90
2018-11-20T16:19:14.193Z,1.90
2018-11-20T16:22:21.340Z,1.90
2018-11-20T16:25:28.568Z,2.00
2018-11-20T16:28:35.713Z,2.10
2018-11-20T16:31:42.899Z,2.10
2018-11-20T16:34:50.064Z,2.00
2018-11-20T16:37:57.223Z,2.00
2018-11-20T16:41:04.369Z,2.00
2018-11-20T16:44:11.534Z,2.10
2018-11-20T16:47:18.679Z,2.10
2018-11-20T16:50:26.207Z,2.10
2018-11-20T16:53:33.349Z,2.10
2018-11-20T16:56:34.157Z,2.10
2018-11-20T16:59:41.302Z,2.10
2018-11-20T17:02:48.554Z,2.10
2018-11-20T17:05:55.703Z,2.10
2018-11-20T17:09:02.861Z,2.10
2018-11-20T17:12:10.025Z,2.00
2018-11-20T17:15:03.860Z,2.00
2018-11-20T17:18:11.042Z,2.00
2018-11-20T17:21:18.424Z,2.00
2018-11-20T17:24:25.565Z,2.00
2018-11-20T17:27:32.741Z,2.00
2018-11-20T17:30:39.889Z,2.00
2018-11-20T17:33:47.069Z,2.00
2018-11-20T17:36:54.227Z,2.00
2018-11-20T17:40:01.419Z,2.10
2018-11-20T17:43:08.571Z,2.10
2018-11-20T17:46:15.740Z,2.10
2018-11-20T17:49:22.925Z,2.00
2018-11-20T17:52:30.188Z,2.00
2018-11-20T17:58:49.409Z,2.10
2018-11-20T18:01:56.580Z,2.20
2018-11-20T18:05:03.754Z,2.20
2018-11-20T18:08:07.073Z,2.20
2018-11-20T18:11:14.224Z,2.20
2018-11-20T18:14:21.397Z,2.20
2018-11-20T18:17:28.552Z,2.20
2018-11-20T18:20:35.739Z,2.20
2018-11-20T18:23:42.882Z,2.20
2018-11-20T18:26:50.129Z,2.10
2018-11-20T18:29:57.283Z,2.10
2018-11-20T18:33:04.499Z,2.10
2018-11-20T18:36:01.262Z,2.20
2018-11-20T18:39:08.433Z,2.20
2018-11-20T18:42:06.773Z,2.20
2018-11-20T18:45:13.933Z,2.20
2018-11-20T18:48:21.114Z,2.20
2018-11-20T18:51:28.295Z,2.10
2018-11-20T18:57:51.078Z,2.10
2018-11-20T19:00:58.226Z,1.90
2018-11-20T19:04:05.435Z,1.90
2018-11-20T19:07:12.593Z,1.90
2018-11-20T19:10:19.816Z,1.80
2018-11-20T19:13:26.961Z,1.80
2018-11-20T19:16:34.220Z,1.70
2018-11-20T19:19:41.364Z,1.70
2018-11-20T19:22:48.537Z,1.70
2018-11-20T19:25:55.781Z,1.60
2018-11-20T19:29:02.983Z,1.60
2018-11-20T19:32:10.154Z,1.70
2018-11-20T19:35:17.299Z,1.70
2018-11-20T19:38:24.645Z,1.70
2018-11-20T19:41:31.800Z,1.80
2018-11-20T19:44:39.114Z,1.80
2018-11-20T19:47:46.276Z,1.80
2018-11-20T19:50:57.775Z,1.70
2018-11-20T19:54:00.595Z,1.70
2018-11-20T19:59:36.673Z,1.80
2018-11-20T20:02:44.125Z,1.80
2018-11-20T20:05:51.337Z,1.80
2018-11-20T20:08:38.138Z,1.90
2018-11-20T20:11:17.715Z,1.90
2018-11-20T20:14:17.752Z,2.00
2018-11-20T20:17:07.017Z,2.00
2018-11-20T20:19:53.766Z,2.00
2018-11-20T20:22:31.939Z,1.90
2018-11-20T20:25:18.874Z,2.00
2018-11-20T20:28:07.042Z,1.90
2018-11-20T20:30:53.609Z,1.90
2018-11-20T20:33:34.903Z,1.90
2018-11-20T20:36:21.556Z,1.90
2018-11-20T20:39:01.848Z,1.90
2018-11-20T20:41:59.722Z,1.90
2018-11-20T20:44:53.630Z,1.90
2018-11-20T20:47:40.527Z,2.00
2018-11-20T20:50:28.716Z,2.00
2018-11-20T20:53:15.287Z,2.00
2018-11-20T20:56:02.243Z,2.00
2018-11-20T20:58:46.645Z,2.00
2018-11-20T21:01:30.942Z,2.00
2018-11-20T21:04:18.661Z,2.00
2018-11-20T21:06:59.645Z,2.00
2018-11-20T21:09:43.005Z,2.00
2018-11-20T21:12:28.800Z,2.00
2018-11-20T21:15:50.689Z,2.00
2018-11-20T21:18:50.004Z,2.10
2018-11-20T21:21:40.126Z,2.10
2018-11-20T21:24:33.319Z,2.10
2018-11-20T21:27:23.251Z,2.20
2018-11-20T21:30:09.875Z,2.20
2018-11-20T21:32:59.015Z,2.20
2018-11-20T21:35:46.919Z,2.20
2018-11-20T21:38:30.817Z,2.30
2018-11-20T21:41:15.056Z,2.30
2018-11-20T21:44:05.139Z,2.30
2018-11-20T21:47:07.623Z,2.30
2018-11-20T21:49:54.079Z,2.30
2018-11-20T21:52:39.928Z,2.40
2018-11-20T21:55:20.821Z,2.30
2018-11-20T21:58:20.360Z,2.40
2018-11-20T22:01:14.111Z,2.40
2018-11-20T22:04:07.136Z,2.40
2018-11-20T22:06:52.912Z,2.50
2018-11-20T22:09:38.963Z,2.50
2018-11-20T22:12:26.204Z,2.50
2018-11-20T22:15:24.202Z,2.50
2018-11-20T22:18:20.501Z,2.50
2018-11-20T22:21:09.486Z,2.50
2018-11-20T22:24:02.604Z,2.60
2018-11-20T22:27:02.068Z,2.60
2018-11-20T22:29:49.369Z,2.60
2018-11-20T22:32:37.917Z,2.60
2018-11-20T22:35:22.667Z,2.60
2018-11-20T22:37:58.969Z,2.60
2018-11-20T22:40:49.101Z,2.60
2018-11-20T22:43:45.440Z,2.60
2018-11-20T22:46:31.474Z,2.60
2018-11-20T22:49:19.153Z,2.60
2018-11-20T22:52:05.055Z,2.60
2018-11-20T22:54:55.765Z,2.70
2018-11-20T22:57:34.502Z,2.70
2018-11-20T23:00:19.041Z,2.60
2018-11-20T23:03:21.507Z,2.70
2018-11-20T23:06:01.366Z,2.60
2018-11-20T23:08:29.544Z,2.70
2018-11-20T23:10:57.668Z,2.70
2018-11-20T23:13:25.817Z,2.70
2018-11-20T23:15:53.964Z,2.70
2018-11-20T23:18:22.096Z,2.70
2018-11-20T23:20:50.238Z,2.70
2018-11-20T23:23:18.369Z,2.70
2018-11-20T23:25:46.530Z,2.70
2018-11-20T23:28:14.649Z,2.70
2018-11-20T23:30:42.776Z,2.70
2018-11-20T23:33:10.923Z,2.70
2018-11-20T23:35:39.045Z,2.60
2018-11-20T23:38:07.161Z,2.60
2018-11-20T23:40:35.300Z,2.50
2018-11-20T23:43:03.432Z,2.50
2018-11-20T23:45:31.548Z,2.50
2018-11-20T23:47:59.976Z,2.40
2018-11-20T23:50:28.129Z,2.40
2018-11-20T23:52:56.251Z,2.30
2018-11-20T23:55:24.641Z,2.40
2018-11-20T23:57:52.837Z,2.30
